sensor_id;sensor_type;location;lat;lon;timestamp;temperature;humidity
69225;DHT22;56333;51.306;17.056;2023-04-25T00:00:44;10.69;68.07
69225;DHT22;56333;51.306;17.056;2023-04-25T00:02:12;10.70;68.00
69225;DHT22;56333;51.306;17.056;2023-04-25T00:03:41;10.70;67.70
69225;DHT22;56333;51.306;17.056;2023-04-25T00:05:10;10.71;67.43
69225;DHT22;56333;51.306;17.056;2023-04-25T00:06:40;10.68;67.00
69225;DHT22;56333;51.306;17.056;2023-04-25T00:08:10;10.65;67.10
69225;DHT22;56333;51.306;17.056;2023-04-25T00:09:38;10.64;66.97
69225;DHT22;56333;51.306;17.056;2023-04-25T00:11:07;10.60;66.90
69225;DHT22;56333;51.306;17.056;2023-04-25T00:12:36;10.60;67.03
69225;DHT22;56333;51.306;17.056;2023-04-25T00:14:05;10.57;66.88
69225;DHT22;56333;51.306;17.056;2023-04-25T00:15:34;10.54;66.93
69225;DHT22;56333;51.306;17.056;2023-04-25T00:17:05;10.52;66.88
69225;DHT22;56333;51.306;17.056;2023-04-25T00:18:35;10.49;66.88
69225;DHT22;56333;51.306;17.056;2023-04-25T00:20:06;10.48;66.95
69225;DHT22;56333;51.306;17.056;2023-04-25T00:21:37;10.44;67.18
69225;DHT22;56333;51.306;17.056;2023-04-25T00:23:06;10.44;67.43
69225;DHT22;56333;51.306;17.056;2023-04-25T00:24:34;10.45;67.75
69225;DHT22;56333;51.306;17.056;2023-04-25T00:26:03;10.48;68.03
69225;DHT22;56333;51.306;17.056;2023-04-25T00:27:32;10.49;68.07
69225;DHT22;56333;51.306;17.056;2023-04-25T00:29:03;10.50;68.05
69225;DHT22;56333;51.306;17.056;2023-04-25T00:30:32;10.51;68.00
69225;DHT22;56333;51.306;17.056;2023-04-25T00:32:02;10.51;67.90
69225;DHT22;56333;51.306;17.056;2023-04-25T00:33:31;10.51;67.82
69225;DHT22;56333;51.306;17.056;2023-04-25T00:35:01;10.50;67.78
69225;DHT22;56333;51.306;17.056;2023-04-25T00:36:32;10.49;67.78
69225;DHT22;56333;51.306;17.056;2023-04-25T00:37:59;10.44;67.70
69225;DHT22;56333;51.306;17.056;2023-04-25T00:39:28;10.44;67.68
69225;DHT22;56333;51.306;17.056;2023-04-25T00:40:57;10.42;67.60
69225;DHT22;56333;51.306;17.056;2023-04-25T00:42:25;10.40;67.68
69225;DHT22;56333;51.306;17.056;2023-04-25T00:43:56;10.39;67.63
69225;DHT22;56333;51.306;17.056;2023-04-25T00:45:27;10.38;67.72
69225;DHT22;56333;51.306;17.056;2023-04-25T00:46:57;10.37;67.88
69225;DHT22;56333;51.306;17.056;2023-04-25T00:48:27;10.35;68.10
69225;DHT22;56333;51.306;17.056;2023-04-25T00:49:56;10.39;68.28
69225;DHT22;56333;51.306;17.056;2023-04-25T00:51:26;10.41;68.40
69225;DHT22;56333;51.306;17.056;2023-04-25T00:52:55;10.43;68.32
69225;DHT22;56333;51.306;17.056;2023-04-25T00:54:25;10.44;68.18
69225;DHT22;56333;51.306;17.056;2023-04-25T00:55:55;10.47;68.07
69225;DHT22;56333;51.306;17.056;2023-04-25T00:57:24;10.47;68.03
69225;DHT22;56333;51.306;17.056;2023-04-25T00:58:53;10.48;67.93
69225;DHT22;56333;51.306;17.056;2023-04-25T01:00:22;10.46;67.88
69225;DHT22;56333;51.306;17.056;2023-04-25T01:01:51;10.46;67.85
69225;DHT22;56333;51.306;17.056;2023-04-25T01:03:20;10.43;67.80
69225;DHT22;56333;51.306;17.056;2023-04-25T01:04:52;10.41;67.80
69225;DHT22;56333;51.306;17.056;2023-04-25T01:06:21;10.41;67.85
69225;DHT22;56333;51.306;17.056;2023-04-25T01:07:50;10.41;67.80
69225;DHT22;56333;51.306;17.056;2023-04-25T01:09:20;10.41;67.88
69225;DHT22;56333;51.306;17.056;2023-04-25T01:10:49;10.40;68.03
69225;DHT22;56333;51.306;17.056;2023-04-25T01:12:18;10.40;68.32
69225;DHT22;56333;51.306;17.056;2023-04-25T01:13:47;10.40;68.53
69225;DHT22;56333;51.306;17.056;2023-04-25T01:15:15;10.40;68.63
69225;DHT22;56333;51.306;17.056;2023-04-25T01:16:45;10.42;68.57
69225;DHT22;56333;51.306;17.056;2023-04-25T01:18:15;10.42;68.43
69225;DHT22;56333;51.306;17.056;2023-04-25T01:19:45;10.40;68.30
69225;DHT22;56333;51.306;17.056;2023-04-25T01:21:14;10.39;68.25
69225;DHT22;56333;51.306;17.056;2023-04-25T01:22:44;10.37;68.18
69225;DHT22;56333;51.306;17.056;2023-04-25T01:24:14;10.35;68.22
69225;DHT22;56333;51.306;17.056;2023-04-25T01:25:43;10.34;68.18
69225;DHT22;56333;51.306;17.056;2023-04-25T01:27:12;10.33;68.15
69225;DHT22;56333;51.306;17.056;2023-04-25T01:28:42;10.28;68.18
69225;DHT22;56333;51.306;17.056;2023-04-25T01:30:11;10.26;68.15
69225;DHT22;56333;51.306;17.056;2023-04-25T01:31:40;10.25;68.20
69225;DHT22;56333;51.306;17.056;2023-04-25T01:33:11;10.24;68.32
69225;DHT22;56333;51.306;17.056;2023-04-25T01:34:42;10.24;68.63
69225;DHT22;56333;51.306;17.056;2023-04-25T01:36:11;10.24;68.85
69225;DHT22;56333;51.306;17.056;2023-04-25T01:37:41;10.26;68.95
69225;DHT22;56333;51.306;17.056;2023-04-25T01:39:10;10.25;68.95
69225;DHT22;56333;51.306;17.056;2023-04-25T01:40:40;10.27;68.70
69225;DHT22;56333;51.306;17.056;2023-04-25T01:42:11;10.24;68.60
69225;DHT22;56333;51.306;17.056;2023-04-25T01:43:41;10.23;68.50
69225;DHT22;56333;51.306;17.056;2023-04-25T01:45:11;10.22;68.38
69225;DHT22;56333;51.306;17.056;2023-04-25T01:46:40;10.19;68.35
69225;DHT22;56333;51.306;17.056;2023-04-25T01:48:10;10.17;68.25
69225;DHT22;56333;51.306;17.056;2023-04-25T01:49:41;10.13;68.30
69225;DHT22;56333;51.306;17.056;2023-04-25T01:51:09;10.12;68.22
69225;DHT22;56333;51.306;17.056;2023-04-25T01:52:40;10.10;68.25
69225;DHT22;56333;51.306;17.056;2023-04-25T01:54:09;10.07;68.25
69225;DHT22;56333;51.306;17.056;2023-04-25T01:55:39;10.05;68.28
69225;DHT22;56333;51.306;17.056;2023-04-25T01:57:11;10.04;68.43
69225;DHT22;56333;51.306;17.056;2023-04-25T01:58:41;10.03;68.65
69225;DHT22;56333;51.306;17.056;2023-04-25T02:00:28;10.03;68.88
69225;DHT22;56333;51.306;17.056;2023-04-25T02:01:58;10.04;69.05
69225;DHT22;56333;51.306;17.056;2023-04-25T02:03:29;10.04;68.90
69225;DHT22;56333;51.306;17.056;2023-04-25T02:04:59;10.02;68.70
69225;DHT22;56333;51.306;17.056;2023-04-25T02:06:30;10.00;68.60
69225;DHT22;56333;51.306;17.056;2023-04-25T02:07:59;9.98;68.60
69225;DHT22;56333;51.306;17.056;2023-04-25T02:09:29;9.96;68.45
69225;DHT22;56333;51.306;17.056;2023-04-25T02:11:01;9.93;68.47
69225;DHT22;56333;51.306;17.056;2023-04-25T02:12:38;9.90;68.43
69225;DHT22;56333;51.306;17.056;2023-04-25T02:14:17;9.86;68.45
69225;DHT22;56333;51.306;17.056;2023-04-25T02:15:53;9.83;68.43
69225;DHT22;56333;51.306;17.056;2023-04-25T02:17:22;9.82;68.45
69225;DHT22;56333;51.306;17.056;2023-04-25T02:18:51;9.77;68.47
69225;DHT22;56333;51.306;17.056;2023-04-25T02:20:20;9.76;68.63
69225;DHT22;56333;51.306;17.056;2023-04-25T02:21:50;9.74;68.80
69225;DHT22;56333;51.306;17.056;2023-04-25T02:23:21;9.73;68.95
69225;DHT22;56333;51.306;17.056;2023-04-25T02:24:50;9.73;69.13
69225;DHT22;56333;51.306;17.056;2023-04-25T02:26:20;9.72;69.30
69225;DHT22;56333;51.306;17.056;2023-04-25T02:27:49;9.73;69.38
69225;DHT22;56333;51.306;17.056;2023-04-25T02:29:19;9.73;69.30
69225;DHT22;56333;51.306;17.056;2023-04-25T02:30:48;9.74;69.20
69225;DHT22;56333;51.306;17.056;2023-04-25T02:32:17;9.72;69.05
69225;DHT22;56333;51.306;17.056;2023-04-25T02:33:46;9.71;68.93
69225;DHT22;56333;51.306;17.056;2023-04-25T02:35:16;9.69;68.88
69225;DHT22;56333;51.306;17.056;2023-04-25T02:36:45;9.65;68.90
69225;DHT22;56333;51.306;17.056;2023-04-25T02:38:15;9.61;68.88
69225;DHT22;56333;51.306;17.056;2023-04-25T02:39:44;9.60;68.85
69225;DHT22;56333;51.306;17.056;2023-04-25T02:41:13;9.59;68.82
69225;DHT22;56333;51.306;17.056;2023-04-25T02:42:42;9.58;68.80
69225;DHT22;56333;51.306;17.056;2023-04-25T02:44:11;9.54;68.88
69225;DHT22;56333;51.306;17.056;2023-04-25T02:45:40;9.52;69.03
69225;DHT22;56333;51.306;17.056;2023-04-25T02:47:09;9.51;69.28
69225;DHT22;56333;51.306;17.056;2023-04-25T02:48:41;9.52;69.53
69225;DHT22;56333;51.306;17.056;2023-04-25T02:50:10;9.52;69.70
69225;DHT22;56333;51.306;17.056;2023-04-25T02:51:39;9.53;69.75
69225;DHT22;56333;51.306;17.056;2023-04-25T02:53:08;9.55;69.68
69225;DHT22;56333;51.306;17.056;2023-04-25T02:54:42;9.56;69.47
69225;DHT22;56333;51.306;17.056;2023-04-25T02:56:11;9.55;69.32
69225;DHT22;56333;51.306;17.056;2023-04-25T02:57:40;9.54;69.10
69225;DHT22;56333;51.306;17.056;2023-04-25T02:59:11;9.50;69.07
69225;DHT22;56333;51.306;17.056;2023-04-25T03:00:40;9.48;69.07
69225;DHT22;56333;51.306;17.056;2023-04-25T03:02:11;9.46;69.07
69225;DHT22;56333;51.306;17.056;2023-04-25T03:03:40;9.43;69.05
69225;DHT22;56333;51.306;17.056;2023-04-25T03:05:09;9.42;68.95
69225;DHT22;56333;51.306;17.056;2023-04-25T03:06:37;9.39;69.00
69225;DHT22;56333;51.306;17.056;2023-04-25T03:08:07;9.37;69.10
69225;DHT22;56333;51.306;17.056;2023-04-25T03:09:36;9.36;69.10
69225;DHT22;56333;51.306;17.056;2023-04-25T03:11:05;9.34;69.20
69225;DHT22;56333;51.306;17.056;2023-04-25T03:12:34;9.35;69.38
69225;DHT22;56333;51.306;17.056;2023-04-25T03:14:03;9.37;69.70
69225;DHT22;56333;51.306;17.056;2023-04-25T03:15:32;9.40;69.88
69225;DHT22;56333;51.306;17.056;2023-04-25T03:17:02;9.40;69.90
69225;DHT22;56333;51.306;17.056;2023-04-25T03:18:33;9.42;69.78
69225;DHT22;56333;51.306;17.056;2023-04-25T03:20:02;9.44;69.57
69225;DHT22;56333;51.306;17.056;2023-04-25T03:21:34;9.42;69.40
69225;DHT22;56333;51.306;17.056;2023-04-25T03:23:03;9.42;69.30
69225;DHT22;56333;51.306;17.056;2023-04-25T03:24:32;9.41;69.22
69225;DHT22;56333;51.306;17.056;2023-04-25T03:26:02;9.42;69.13
69225;DHT22;56333;51.306;17.056;2023-04-25T03:27:30;9.39;69.05
69225;DHT22;56333;51.306;17.056;2023-04-25T03:29:01;9.38;69.05
69225;DHT22;56333;51.306;17.056;2023-04-25T03:30:31;9.37;69.03
69225;DHT22;56333;51.306;17.056;2023-04-25T03:31:59;9.35;69.10
69225;DHT22;56333;51.306;17.056;2023-04-25T03:33:29;9.35;69.22
69225;DHT22;56333;51.306;17.056;2023-04-25T03:34:58;9.35;69.43
69225;DHT22;56333;51.306;17.056;2023-04-25T03:36:27;9.36;69.63
69225;DHT22;56333;51.306;17.056;2023-04-25T03:37:56;9.38;69.75
69225;DHT22;56333;51.306;17.056;2023-04-25T03:39:28;9.39;69.75
69225;DHT22;56333;51.306;17.056;2023-04-25T03:40:57;9.40;69.63
69225;DHT22;56333;51.306;17.056;2023-04-25T03:42:39;9.39;69.53
69225;DHT22;56333;51.306;17.056;2023-04-25T03:44:08;9.38;69.35
69225;DHT22;56333;51.306;17.056;2023-04-25T03:45:38;9.38;69.30
69225;DHT22;56333;51.306;17.056;2023-04-25T03:47:07;9.36;69.22
69225;DHT22;56333;51.306;17.056;2023-04-25T03:48:36;9.35;69.25
69225;DHT22;56333;51.306;17.056;2023-04-25T03:50:07;9.35;69.20
69225;DHT22;56333;51.306;17.056;2023-04-25T03:51:36;9.34;69.28
69225;DHT22;56333;51.306;17.056;2023-04-25T03:53:05;9.33;69.30
69225;DHT22;56333;51.306;17.056;2023-04-25T03:54:54;9.32;69.22
69225;DHT22;56333;51.306;17.056;2023-04-25T03:56:23;9.32;69.43
69225;DHT22;56333;51.306;17.056;2023-04-25T03:57:58;9.34;69.75
69225;DHT22;56333;51.306;17.056;2023-04-25T03:59:27;9.36;69.97
69225;DHT22;56333;51.306;17.056;2023-04-25T04:00:56;9.39;70.07
69225;DHT22;56333;51.306;17.056;2023-04-25T04:02:29;9.41;69.93
69225;DHT22;56333;51.306;17.056;2023-04-25T04:03:58;9.43;69.72
69225;DHT22;56333;51.306;17.056;2023-04-25T04:05:28;9.44;69.60
69225;DHT22;56333;51.306;17.056;2023-04-25T04:06:57;9.45;69.45
69225;DHT22;56333;51.306;17.056;2023-04-25T04:08:28;9.47;69.32
69225;DHT22;56333;51.306;17.056;2023-04-25T04:09:57;9.48;69.22
69225;DHT22;56333;51.306;17.056;2023-04-25T04:11:32;9.49;69.20
69225;DHT22;56333;51.306;17.056;2023-04-25T04:13:02;9.50;69.15
69225;DHT22;56333;51.306;17.056;2023-04-25T04:14:31;9.52;69.07
69225;DHT22;56333;51.306;17.056;2023-04-25T04:16:00;9.56;69.03
69225;DHT22;56333;51.306;17.056;2023-04-25T04:17:30;9.60;68.88
69225;DHT22;56333;51.306;17.056;2023-04-25T04:18:59;9.68;68.85
69225;DHT22;56333;51.306;17.056;2023-04-25T04:20:29;9.78;68.93
69225;DHT22;56333;51.306;17.056;2023-04-25T04:21:58;9.94;68.95
69225;DHT22;56333;51.306;17.056;2023-04-25T04:23:27;10.09;68.97
69225;DHT22;56333;51.306;17.056;2023-04-25T04:24:57;10.19;68.78
69225;DHT22;56333;51.306;17.056;2023-04-25T04:26:45;10.27;68.32
69225;DHT22;56333;51.306;17.056;2023-04-25T04:28:34;10.33;67.95
69225;DHT22;56333;51.306;17.056;2023-04-25T04:30:34;10.38;67.57
69225;DHT22;56333;51.306;17.056;2023-04-25T04:32:06;10.41;67.32
69225;DHT22;56333;51.306;17.056;2023-04-25T04:33:35;10.40;67.10
69225;DHT22;56333;51.306;17.056;2023-04-25T04:35:06;10.43;67.03
69225;DHT22;56333;51.306;17.056;2023-04-25T04:36:37;10.43;66.82
69225;DHT22;56333;51.306;17.056;2023-04-25T04:38:06;10.44;66.70
69225;DHT22;56333;51.306;17.056;2023-04-25T04:39:36;10.45;66.70
69225;DHT22;56333;51.306;17.056;2023-04-25T04:41:18;10.49;66.65
69225;DHT22;56333;51.306;17.056;2023-04-25T04:43:04;10.52;66.60
69225;DHT22;56333;51.306;17.056;2023-04-25T04:45:01;10.57;66.45
69225;DHT22;56333;51.306;17.056;2023-04-25T04:46:43;10.61;66.30
69225;DHT22;56333;51.306;17.056;2023-04-25T04:48:28;10.65;66.15
69225;DHT22;56333;51.306;17.056;2023-04-25T04:50:25;10.73;66.10
69225;DHT22;56333;51.306;17.056;2023-04-25T04:52:43;10.80;65.88
69225;DHT22;56333;51.306;17.056;2023-04-25T04:54:37;10.88;65.72
69225;DHT22;56333;51.306;17.056;2023-04-25T04:56:23;10.98;65.55
69225;DHT22;56333;51.306;17.056;2023-04-25T04:58:03;11.13;65.20
69225;DHT22;56333;51.306;17.056;2023-04-25T04:59:50;11.24;64.90
69225;DHT22;56333;51.306;17.056;2023-04-25T05:02:06;11.31;64.88
69225;DHT22;56333;51.306;17.056;2023-04-25T05:03:49;11.32;64.53
69225;DHT22;56333;51.306;17.056;2023-04-25T05:05:44;11.35;64.30
69225;DHT22;56333;51.306;17.056;2023-04-25T05:07:56;11.37;63.92
69225;DHT22;56333;51.306;17.056;2023-04-25T05:10:12;11.44;64.25
69225;DHT22;56333;51.306;17.056;2023-04-25T05:12:00;11.54;63.90
69225;DHT22;56333;51.306;17.056;2023-04-25T05:14:17;11.69;63.83
69225;DHT22;56333;51.306;17.056;2023-04-25T05:16:00;11.81;63.50
69225;DHT22;56333;51.306;17.056;2023-04-25T05:17:49;11.92;63.20
69225;DHT22;56333;51.306;17.056;2023-04-25T05:19:36;12.02;63.03
69225;DHT22;56333;51.306;17.056;2023-04-25T05:21:23;12.06;62.78
69225;DHT22;56333;51.306;17.056;2023-04-25T05:23:25;12.14;62.58
69225;DHT22;56333;51.306;17.056;2023-04-25T05:25:01;12.22;62.58
69225;DHT22;56333;51.306;17.056;2023-04-25T05:27:27;12.28;62.08
69225;DHT22;56333;51.306;17.056;2023-04-25T05:29:06;12.29;61.90
69225;DHT22;56333;51.306;17.056;2023-04-25T05:30:35;12.33;62.17
69225;DHT22;56333;51.306;17.056;2023-04-25T05:32:09;12.34;61.53
69225;DHT22;56333;51.306;17.056;2023-04-25T05:33:37;12.34;61.42
69225;DHT22;56333;51.306;17.056;2023-04-25T05:35:07;12.32;61.30
69225;DHT22;56333;51.306;17.056;2023-04-25T05:36:42;12.33;61.28
69225;DHT22;56333;51.306;17.056;2023-04-25T05:38:13;12.28;61.00
69225;DHT22;56333;51.306;17.056;2023-04-25T05:40:01;12.23;60.95
69225;DHT22;56333;51.306;17.056;2023-04-25T05:41:51;12.16;60.90
69225;DHT22;56333;51.306;17.056;2023-04-25T05:43:50;12.07;60.78
69225;DHT22;56333;51.306;17.056;2023-04-25T05:45:27;12.02;60.67
69225;DHT22;56333;51.306;17.056;2023-04-25T05:47:02;11.98;60.80
69225;DHT22;56333;51.306;17.056;2023-04-25T05:49:21;11.91;60.80
69225;DHT22;56333;51.306;17.056;2023-04-25T05:51:43;11.93;61.17
69225;DHT22;56333;51.306;17.056;2023-04-25T05:53:26;11.91;60.85
69225;DHT22;56333;51.306;17.056;2023-04-25T05:55:01;11.92;61.22
69225;DHT22;56333;51.306;17.056;2023-04-25T05:56:33;11.95;61.05
69225;DHT22;56333;51.306;17.056;2023-04-25T05:58:07;11.98;60.97
69225;DHT22;56333;51.306;17.056;2023-04-25T05:59:36;12.00;60.72
69225;DHT22;56333;51.306;17.056;2023-04-25T06:01:05;11.99;60.55
69225;DHT22;56333;51.306;17.056;2023-04-25T06:02:34;12.01;60.65
69225;DHT22;56333;51.306;17.056;2023-04-25T06:04:03;12.04;60.60
69225;DHT22;56333;51.306;17.056;2023-04-25T06:05:32;12.04;60.33
69225;DHT22;56333;51.306;17.056;2023-04-25T06:07:01;12.06;60.63
69225;DHT22;56333;51.306;17.056;2023-04-25T06:08:30;12.09;60.33
69225;DHT22;56333;51.306;17.056;2023-04-25T06:09:59;12.11;60.17
69225;DHT22;56333;51.306;17.056;2023-04-25T06:11:30;12.08;60.30
69225;DHT22;56333;51.306;17.056;2023-04-25T06:12:59;12.09;60.20
69225;DHT22;56333;51.306;17.056;2023-04-25T06:14:29;12.12;60.25
69225;DHT22;56333;51.306;17.056;2023-04-25T06:15:58;12.15;60.20
69225;DHT22;56333;51.306;17.056;2023-04-25T06:17:29;12.18;60.20
69225;DHT22;56333;51.306;17.056;2023-04-25T06:19:02;12.19;59.90
69225;DHT22;56333;51.306;17.056;2023-04-25T06:20:32;12.19;59.72
69225;DHT22;56333;51.306;17.056;2023-04-25T06:22:03;12.20;59.85
69225;DHT22;56333;51.306;17.056;2023-04-25T06:23:32;12.22;59.67
69225;DHT22;56333;51.306;17.056;2023-04-25T06:25:05;12.25;59.83
69225;DHT22;56333;51.306;17.056;2023-04-25T06:26:35;12.27;59.83
69225;DHT22;56333;51.306;17.056;2023-04-25T06:28:05;12.32;59.67
69225;DHT22;56333;51.306;17.056;2023-04-25T06:29:34;12.35;59.72
69225;DHT22;56333;51.306;17.056;2023-04-25T06:31:03;12.35;59.53
69225;DHT22;56333;51.306;17.056;2023-04-25T06:32:32;12.38;59.35
69225;DHT22;56333;51.306;17.056;2023-04-25T06:34:02;12.39;59.28
69225;DHT22;56333;51.306;17.056;2023-04-25T06:35:31;12.40;59.40
69225;DHT22;56333;51.306;17.056;2023-04-25T06:37:02;12.47;59.15
69225;DHT22;56333;51.306;17.056;2023-04-25T06:38:31;12.49;59.03
69225;DHT22;56333;51.306;17.056;2023-04-25T06:40:01;12.51;58.95
69225;DHT22;56333;51.306;17.056;2023-04-25T06:41:32;12.53;58.63
69225;DHT22;56333;51.306;17.056;2023-04-25T06:43:04;12.56;58.53
69225;DHT22;56333;51.306;17.056;2023-04-25T06:44:43;12.58;58.47
69225;DHT22;56333;51.306;17.056;2023-04-25T06:46:12;12.64;58.58
69225;DHT22;56333;51.306;17.056;2023-04-25T06:47:42;12.72;58.08
69225;DHT22;56333;51.306;17.056;2023-04-25T06:49:11;12.79;57.60
69225;DHT22;56333;51.306;17.056;2023-04-25T06:50:40;12.84;57.75
69225;DHT22;56333;51.306;17.056;2023-04-25T06:52:10;12.89;57.35
69225;DHT22;56333;51.306;17.056;2023-04-25T06:53:39;12.95;57.60
69225;DHT22;56333;51.306;17.056;2023-04-25T06:55:13;13.01;57.13
69225;DHT22;56333;51.306;17.056;2023-04-25T06:57:25;13.01;56.50
69225;DHT22;56333;51.306;17.056;2023-04-25T06:58:58;13.02;56.78
69225;DHT22;56333;51.306;17.056;2023-04-25T07:00:35;13.04;56.97
69225;DHT22;56333;51.306;17.056;2023-04-25T07:02:04;13.04;56.95
69225;DHT22;56333;51.306;17.056;2023-04-25T07:03:34;13.09;57.00
69225;DHT22;56333;51.306;17.056;2023-04-25T07:05:07;13.15;56.40
69225;DHT22;56333;51.306;17.056;2023-04-25T07:06:36;13.20;56.33
69225;DHT22;56333;51.306;17.056;2023-04-25T07:08:06;13.22;56.08
69225;DHT22;56333;51.306;17.056;2023-04-25T07:09:35;13.23;55.55
69225;DHT22;56333;51.306;17.056;2023-04-25T07:11:04;13.24;56.05
69225;DHT22;56333;51.306;17.056;2023-04-25T07:12:34;13.25;56.20
69225;DHT22;56333;51.306;17.056;2023-04-25T07:14:03;13.26;56.33
69225;DHT22;56333;51.306;17.056;2023-04-25T07:15:32;13.29;56.30
69225;DHT22;56333;51.306;17.056;2023-04-25T07:17:01;13.34;56.17
69225;DHT22;56333;51.306;17.056;2023-04-25T07:18:32;13.40;55.97
69225;DHT22;56333;51.306;17.056;2023-04-25T07:20:01;13.44;55.70
69225;DHT22;56333;51.306;17.056;2023-04-25T07:21:32;13.43;55.33
69225;DHT22;56333;51.306;17.056;2023-04-25T07:23:01;13.41;55.38
69225;DHT22;56333;51.306;17.056;2023-04-25T07:24:30;13.38;55.00
69225;DHT22;56333;51.306;17.056;2023-04-25T07:26:00;13.33;54.50
69225;DHT22;56333;51.306;17.056;2023-04-25T07:27:29;13.33;54.80
69225;DHT22;56333;51.306;17.056;2023-04-25T07:29:07;13.33;55.08
69225;DHT22;56333;51.306;17.056;2023-04-25T07:30:36;13.38;55.20
69225;DHT22;56333;51.306;17.056;2023-04-25T07:32:04;13.42;55.13
69225;DHT22;56333;51.306;17.056;2023-04-25T07:33:34;13.44;54.58
69225;DHT22;56333;51.306;17.056;2023-04-25T07:35:04;13.43;54.58
69225;DHT22;56333;51.306;17.056;2023-04-25T07:36:34;13.40;54.47
69225;DHT22;56333;51.306;17.056;2023-04-25T07:38:04;13.40;54.35
69225;DHT22;56333;51.306;17.056;2023-04-25T07:39:34;13.41;54.22
69225;DHT22;56333;51.306;17.056;2023-04-25T07:41:03;13.43;54.20
69225;DHT22;56333;51.306;17.056;2023-04-25T07:42:33;13.44;54.15
69225;DHT22;56333;51.306;17.056;2023-04-25T07:44:03;13.41;53.20
69225;DHT22;56333;51.306;17.056;2023-04-25T07:45:32;13.43;53.67
69225;DHT22;56333;51.306;17.056;2023-04-25T07:47:02;13.43;53.75
69225;DHT22;56333;51.306;17.056;2023-04-25T07:48:32;13.47;54.00
69225;DHT22;56333;51.306;17.056;2023-04-25T07:50:02;13.44;53.85
69225;DHT22;56333;51.306;17.056;2023-04-25T07:51:32;13.44;53.47
69225;DHT22;56333;51.306;17.056;2023-04-25T07:53:05;13.45;53.55
69225;DHT22;56333;51.306;17.056;2023-04-25T07:54:40;13.48;53.78
69225;DHT22;56333;51.306;17.056;2023-04-25T07:56:14;13.49;52.97
69225;DHT22;56333;51.306;17.056;2023-04-25T07:57:44;13.52;53.80
69225;DHT22;56333;51.306;17.056;2023-04-25T07:59:13;13.56;53.83
69225;DHT22;56333;51.306;17.056;2023-04-25T08:00:42;13.59;53.80
69225;DHT22;56333;51.306;17.056;2023-04-25T08:02:52;13.61;53.70
69225;DHT22;56333;51.306;17.056;2023-04-25T08:04:21;13.65;53.63
69225;DHT22;56333;51.306;17.056;2023-04-25T08:05:53;13.67;53.45
69225;DHT22;56333;51.306;17.056;2023-04-25T08:07:22;13.68;53.30
69225;DHT22;56333;51.306;17.056;2023-04-25T08:08:53;13.71;53.03
69225;DHT22;56333;51.306;17.056;2023-04-25T08:10:25;13.74;53.30
69225;DHT22;56333;51.306;17.056;2023-04-25T08:11:54;13.76;52.95
69225;DHT22;56333;51.306;17.056;2023-04-25T08:13:27;13.75;52.88
69225;DHT22;56333;51.306;17.056;2023-04-25T08:14:57;13.76;52.95
69225;DHT22;56333;51.306;17.056;2023-04-25T08:16:29;13.74;53.30
69225;DHT22;56333;51.306;17.056;2023-04-25T08:18:00;13.75;53.03
69225;DHT22;56333;51.306;17.056;2023-04-25T08:19:29;13.74;52.90
69225;DHT22;56333;51.306;17.056;2023-04-25T08:20:58;13.76;52.83
69225;DHT22;56333;51.306;17.056;2023-04-25T08:22:30;13.75;52.92
69225;DHT22;56333;51.306;17.056;2023-04-25T08:24:39;13.73;52.80
69225;DHT22;56333;51.306;17.056;2023-04-25T08:26:09;13.70;52.75
69225;DHT22;56333;51.306;17.056;2023-04-25T08:27:40;13.69;52.95
69225;DHT22;56333;51.306;17.056;2023-04-25T08:29:09;13.67;52.92
69225;DHT22;56333;51.306;17.056;2023-04-25T08:30:38;13.67;53.25
69225;DHT22;56333;51.306;17.056;2023-04-25T08:32:09;13.65;53.17
69225;DHT22;56333;51.306;17.056;2023-04-25T08:33:42;13.62;52.88
69225;DHT22;56333;51.306;17.056;2023-04-25T08:35:36;13.52;52.97
69225;DHT22;56333;51.306;17.056;2023-04-25T08:37:05;13.47;53.20
69225;DHT22;56333;51.306;17.056;2023-04-25T08:38:38;13.40;53.28
69225;DHT22;56333;51.306;17.056;2023-04-25T08:40:09;13.34;53.47
69225;DHT22;56333;51.306;17.056;2023-04-25T08:41:48;13.28;53.40
69225;DHT22;56333;51.306;17.056;2023-04-25T08:43:18;13.27;53.60
69225;DHT22;56333;51.306;17.056;2023-04-25T08:44:47;13.29;53.53
69225;DHT22;56333;51.306;17.056;2023-04-25T08:46:19;13.32;53.70
69225;DHT22;56333;51.306;17.056;2023-04-25T08:48:01;13.37;53.70
69225;DHT22;56333;51.306;17.056;2023-04-25T08:49:31;13.44;53.80
69225;DHT22;56333;51.306;17.056;2023-04-25T08:51:02;13.48;53.85
69225;DHT22;56333;51.306;17.056;2023-04-25T08:52:39;13.51;53.38
69225;DHT22;56333;51.306;17.056;2023-04-25T08:54:13;13.48;52.92
69225;DHT22;56333;51.306;17.056;2023-04-25T08:55:42;13.46;52.65
69225;DHT22;56333;51.306;17.056;2023-04-25T08:57:12;13.45;52.95
69225;DHT22;56333;51.306;17.056;2023-04-25T08:58:44;13.49;52.90
69225;DHT22;56333;51.306;17.056;2023-04-25T09:00:16;13.52;53.13
69225;DHT22;56333;51.306;17.056;2023-04-25T09:01:45;13.56;52.92
69225;DHT22;56333;51.306;17.056;2023-04-25T09:03:14;13.60;52.78
69225;DHT22;56333;51.306;17.056;2023-04-25T09:04:45;13.61;52.70
69225;DHT22;56333;51.306;17.056;2023-04-25T09:06:14;13.62;52.75
69225;DHT22;56333;51.306;17.056;2023-04-25T09:07:46;13.64;52.75
69225;DHT22;56333;51.306;17.056;2023-04-25T09:09:15;13.63;51.97
69225;DHT22;56333;51.306;17.056;2023-04-25T09:10:45;13.65;52.45
69225;DHT22;56333;51.306;17.056;2023-04-25T09:12:14;13.65;52.45
69225;DHT22;56333;51.306;17.056;2023-04-25T09:13:44;13.68;52.53
69225;DHT22;56333;51.306;17.056;2023-04-25T09:15:21;13.71;52.58
69225;DHT22;56333;51.306;17.056;2023-04-25T09:17:11;13.77;52.72
69225;DHT22;56333;51.306;17.056;2023-04-25T09:18:44;13.82;52.63
69225;DHT22;56333;51.306;17.056;2023-04-25T09:20:15;13.86;52.83
69225;DHT22;56333;51.306;17.056;2023-04-25T09:21:44;13.90;52.53
69225;DHT22;56333;51.306;17.056;2023-04-25T09:23:15;13.98;52.65
69225;DHT22;56333;51.306;17.056;2023-04-25T09:24:47;14.06;52.45
69225;DHT22;56333;51.306;17.056;2023-04-25T09:26:17;14.09;51.83
69225;DHT22;56333;51.306;17.056;2023-04-25T09:27:53;14.08;51.65
69225;DHT22;56333;51.306;17.056;2023-04-25T09:29:31;14.02;50.97
69225;DHT22;56333;51.306;17.056;2023-04-25T09:31:02;14.02;51.58
69225;DHT22;56333;51.306;17.056;2023-04-25T09:32:36;14.03;51.33
69225;DHT22;56333;51.306;17.056;2023-04-25T09:34:09;14.06;50.92
69225;DHT22;56333;51.306;17.056;2023-04-25T09:35:43;14.14;51.15
69225;DHT22;56333;51.306;17.056;2023-04-25T09:37:29;14.22;51.22
69225;DHT22;56333;51.306;17.056;2023-04-25T09:39:18;14.32;51.22
69225;DHT22;56333;51.306;17.056;2023-04-25T09:40:57;14.40;51.22
69225;DHT22;56333;51.306;17.056;2023-04-25T09:42:33;14.43;50.40